Time;durP1;ratioP1;P1;durP2;ratioP2;P2;SDS_P1;SDS_P2;PMS_P1;PMS_P2;Temp;Humidity;BMP_temperature;BMP_pressure;BME280_temperature;BME280_humidity;BME280_pressure;Samples;Min_cycle;Max_cycle;Signal;HPM_P1;HPM_P2
2023/07/08 00:00:13;;;;;;;4.47;3.17;;;23.00;62.10;;;;;;5113259;28;20084;-76
2023/07/08 00:02:39;;;;;;;3.58;2.80;;;23.00;61.80;;;;;;5113256;28;20020;-75
2023/07/08 00:05:05;;;;;;;5.68;2.85;;;23.00;62.00;;;;;;5112343;28;20108;-76
2023/07/08 00:07:31;;;;;;;4.65;2.88;;;23.00;62.30;;;;;;5112132;28;20029;-76
2023/07/08 00:09:56;;;;;;;4.13;3.10;;;23.00;62.70;;;;;;5113215;28;20088;-75
2023/07/08 00:12:22;;;;;;;5.43;3.08;;;22.90;62.20;;;;;;5116114;28;20447;-75
2023/07/08 00:14:48;;;;;;;4.38;2.83;;;22.90;62.00;;;;;;5117195;28;20028;-75
2023/07/08 00:17:13;;;;;;;5.80;3.35;;;22.90;62.40;;;;;;5117162;28;20020;-75
2023/07/08 00:19:39;;;;;;;6.15;3.15;;;22.90;63.10;;;;;;5099181;28;20028;-75
2023/07/08 00:22:13;;;;;;;5.82;3.08;;;22.90;63.10;;;;;;5116012;28;20024;-76
2023/07/08 00:24:41;;;;;;;4.47;2.75;;;22.80;62.60;;;;;;5117036;28;20020;-76
2023/07/08 00:27:11;;;;;;;5.35;2.63;;;22.80;62.90;;;;;;5116916;28;20035;-76
2023/07/08 00:29:36;;;;;;;5.63;2.85;;;22.70;63.20;;;;;;5115876;28;20020;-76
2023/07/08 00:32:07;;;;;;;5.95;2.90;;;22.70;63.60;;;;;;5098865;28;20032;-75
2023/07/08 00:34:33;;;;;;;8.95;3.22;;;22.70;63.10;;;;;;5116840;28;20027;-75
2023/07/08 00:36:59;;;;;;;4.53;3.10;;;22.70;64.30;;;;;;5115674;28;20052;-75
2023/07/08 00:39:24;;;;;;;5.25;2.90;;;22.60;63.90;;;;;;5115780;28;20028;-76
2023/07/08 00:41:51;;;;;;;4.30;2.90;;;22.60;63.90;;;;;;5115753;28;20040;-75
2023/07/08 00:44:17;;;;;;;5.13;2.85;;;22.60;63.80;;;;;;5116657;28;20046;-75
2023/07/08 00:47:05;;;;;;;3.42;2.58;;;22.60;64.00;;;;;;5116536;28;20035;-75
2023/07/08 00:49:45;;;;;;;4.15;2.70;;;22.60;63.50;;;;;;5116690;28;20024;-75
2023/07/08 00:52:30;;;;;;;4.65;2.90;;;22.50;64.00;;;;;;5116458;28;20043;-76
2023/07/08 00:55:05;;;;;;;4.45;2.72;;;22.50;64.10;;;;;;5116244;28;20118;-76
2023/07/08 00:57:40;;;;;;;4.88;2.78;;;22.40;64.30;;;;;;5116369;28;20083;-75
2023/07/08 01:00:10;;;;;;;4.72;3.03;;;22.40;63.80;;;;;;5116395;28;20027;-75
2023/07/08 01:02:42;;;;;;;5.40;2.95;;;22.30;63.50;;;;;;5116313;28;20402;-76
2023/07/08 01:05:15;;;;;;;5.85;3.22;;;22.30;63.50;;;;;;5116321;28;20012;-76
2023/07/08 01:07:43;;;;;;;3.45;2.90;;;22.30;63.80;;;;;;5116230;28;20028;-76
2023/07/08 01:10:17;;;;;;;5.05;3.05;;;22.20;64.10;;;;;;5115089;28;20084;-75
2023/07/08 01:12:48;;;;;;;5.65;3.00;;;22.20;64.30;;;;;;5116127;28;20016;-76
2023/07/08 01:15:14;;;;;;;7.70;3.28;;;22.20;64.40;;;;;;5115008;28;20020;-76
2023/07/08 01:17:43;;;;;;;5.00;3.20;;;22.20;64.60;;;;;;5116078;28;20050;-75
2023/07/08 01:20:12;;;;;;;5.03;2.97;;;22.20;64.70;;;;;;5115936;28;20024;-75
2023/07/08 01:22:39;;;;;;;3.72;2.90;;;22.20;64.30;;;;;;5114117;28;20044;-75
2023/07/08 01:25:06;;;;;;;4.30;2.80;;;22.10;64.50;;;;;;5114921;28;20024;-76
2023/07/08 01:27:35;;;;;;;4.18;2.80;;;22.20;64.50;;;;;;5115768;28;20027;-75
2023/07/08 01:30:04;;;;;;;4.63;3.13;;;22.20;64.50;;;;;;5115743;28;20028;-76
2023/07/08 01:32:33;;;;;;;5.60;2.65;;;22.20;64.60;;;;;;5114526;28;20024;-75
2023/07/08 01:35:00;;;;;;;4.10;3.03;;;22.10;64.10;;;;;;5115341;28;20080;-76
2023/07/08 01:37:31;;;;;;;4.53;2.83;;;22.20;64.40;;;;;;5115450;28;20044;-75
2023/07/08 01:39:57;;;;;;;4.72;3.03;;;22.20;64.50;;;;;;5115649;28;20024;-75
2023/07/08 01:42:22;;;;;;;5.80;3.15;;;22.20;64.50;;;;;;5115504;28;20027;-76
2023/07/08 01:44:49;;;;;;;6.25;3.13;;;22.20;64.20;;;;;;5115489;28;20032;-75
2023/07/08 01:47:18;;;;;;;4.75;3.53;;;22.10;64.00;;;;;;5115554;28;20054;-76
2023/07/08 01:49:46;;;;;;;5.60;3.38;;;22.20;64.60;;;;;;5115453;28;20028;-76
2023/07/08 01:52:14;;;;;;;6.65;4.15;;;22.10;64.30;;;;;;5115216;28;20032;-76
2023/07/08 01:54:40;;;;;;;6.30;3.65;;;22.10;64.30;;;;;;5115261;28;20029;-75
2023/07/08 01:57:05;;;;;;;6.60;3.45;;;22.00;64.20;;;;;;5114222;28;20068;-76
2023/07/08 01:59:31;;;;;;;7.10;3.58;;;22.10;64.90;;;;;;5115318;28;20031;-76
2023/07/08 02:01:57;;;;;;;4.65;3.53;;;22.00;64.90;;;;;;5115111;28;20070;-76
2023/07/08 02:04:25;;;;;;;5.00;3.60;;;22.00;64.80;;;;;;5114060;28;20031;-75
2023/07/08 02:06:54;;;;;;;4.50;3.30;;;22.00;64.80;;;;;;5114995;28;20024;-76
2023/07/08 02:09:20;;;;;;;6.60;3.58;;;22.00;65.10;;;;;;5114019;28;20031;-75
2023/07/08 02:11:46;;;;;;;5.78;3.72;;;22.00;65.20;;;;;;5113914;28;20043;-75
2023/07/08 02:14:12;;;;;;;5.20;3.20;;;22.00;65.80;;;;;;5114015;28;20073;-75
2023/07/08 02:16:37;;;;;;;6.00;3.60;;;22.00;65.80;;;;;;5114789;28;20024;-76
2023/07/08 02:19:03;;;;;;;5.15;3.58;;;22.00;65.80;;;;;;5113735;28;20054;-76
2023/07/08 02:21:30;;;;;;;4.70;3.30;;;22.00;66.10;;;;;;5114734;28;20028;-75
2023/07/08 02:23:57;;;;;;;5.50;3.10;;;21.90;66.00;;;;;;5114004;28;20111;-75
2023/07/08 02:26:23;;;;;;;5.28;3.67;;;21.90;66.20;;;;;;5114647;28;20024;-76
2023/07/08 02:28:49;;;;;;;4.10;3.15;;;21.90;66.10;;;;;;5114569;28;20050;-75
2023/07/08 02:31:14;;;;;;;5.82;3.10;;;21.90;65.90;;;;;;5113504;28;20028;-75
2023/07/08 02:33:40;;;;;;;4.82;2.88;;;21.80;65.60;;;;;;5113496;28;20024;-75
2023/07/08 02:36:06;;;;;;;3.75;2.83;;;21.80;65.90;;;;;;5114501;28;20031;-75
2023/07/08 02:38:31;;;;;;;5.05;2.80;;;21.80;66.10;;;;;;5114237;28;20036;-76
2023/07/08 02:40:57;;;;;;;4.00;3.00;;;21.80;66.40;;;;;;5114361;28;20039;-75
2023/07/08 02:43:23;;;;;;;5.60;3.20;;;21.70;66.10;;;;;;5114349;28;20043;-75
2023/07/08 02:45:52;;;;;;;5.85;3.17;;;21.70;66.30;;;;;;5113356;28;20028;-75
2023/07/08 02:48:18;;;;;;;4.95;2.95;;;21.70;66.50;;;;;;5113285;28;20028;-75
2023/07/08 02:50:44;;;;;;;4.82;2.92;;;21.60;66.40;;;;;;5113220;28;20032;-75
2023/07/08 02:53:10;;;;;;;7.75;3.00;;;21.60;66.30;;;;;;5114165;28;20028;-75
2023/07/08 02:55:35;;;;;;;5.13;3.10;;;21.60;66.40;;;;;;5113198;28;20087;-76
2023/07/08 02:58:01;;;;;;;4.25;2.97;;;21.50;66.70;;;;;;5113167;28;20028;-76
2023/07/08 03:00:26;;;;;;;4.35;3.10;;;21.60;67.40;;;;;;5114163;28;20039;-76
2023/07/08 03:02:52;;;;;;;5.55;3.13;;;21.50;67.20;;;;;;5096022;28;20024;-76
2023/07/08 03:05:18;;;;;;;4.90;3.08;;;21.50;67.00;;;;;;5096062;28;20016;-76
2023/07/08 03:07:44;;;;;;;5.13;3.10;;;21.40;67.40;;;;;;5112921;28;20013;-76
2023/07/08 03:10:09;;;;;;;5.85;3.42;;;21.40;67.60;;;;;;5113877;28;20055;-76
2023/07/08 03:12:35;;;;;;;3.65;2.55;;;21.40;67.40;;;;;;5112889;28;20044;-75
2023/07/08 03:15:01;;;;;;;8.80;3.65;;;21.30;67.40;;;;;;5113751;28;20071;-76
2023/07/08 03:17:27;;;;;;;4.15;2.90;;;21.30;67.10;;;;;;5112680;28;20040;-76
2023/07/08 03:19:52;;;;;;;3.38;2.75;;;21.30;67.20;;;;;;5112676;28;20044;-76
2023/07/08 03:22:18;;;;;;;3.83;2.78;;;21.30;67.40;;;;;;5113719;28;20111;-75
2023/07/08 03:24:45;;;;;;;5.82;3.13;;;21.20;67.30;;;;;;5113614;28;20031;-75
2023/07/08 03:27:13;;;;;;;3.65;2.90;;;21.20;67.40;;;;;;5113581;28;20024;-76
2023/07/08 03:29:38;;;;;;;6.15;3.05;;;21.20;67.70;;;;;;5113613;28;20020;-76
2023/07/08 03:32:05;;;;;;;4.78;3.20;;;21.10;67.80;;;;;;5112469;28;20036;-76
2023/07/08 03:34:30;;;;;;;4.38;3.05;;;21.10;67.80;;;;;;5112527;28;20058;-75
2023/07/08 03:36:56;;;;;;;5.47;2.92;;;21.10;68.00;;;;;;5112271;28;20044;-76
2023/07/08 03:39:23;;;;;;;4.07;3.03;;;21.10;67.80;;;;;;5112502;28;20028;-76
2023/07/08 03:41:50;;;;;;;5.30;3.53;;;21.10;68.20;;;;;;5112440;28;20048;-76
2023/07/08 03:44:16;;;;;;;4.97;3.38;;;21.00;68.10;;;;;;5113425;28;20024;-76
2023/07/08 03:46:47;;;;;;;6.50;3.38;;;21.10;68.10;;;;;;5112059;28;20039;-76
2023/07/08 03:49:13;;;;;;;4.83;3.50;;;21.10;68.20;;;;;;5113543;28;20035;-75
2023/07/08 03:51:41;;;;;;;5.57;3.55;;;21.00;68.10;;;;;;5113431;28;20084;-76
2023/07/08 03:54:10;;;;;;;5.07;3.35;;;21.00;68.30;;;;;;5095453;28;20020;-76
2023/07/08 03:56:35;;;;;;;5.93;2.88;;;21.00;68.10;;;;;;5113309;28;20020;-76
2023/07/08 03:59:01;;;;;;;6.65;3.00;;;21.00;68.30;;;;;;5113248;28;20036;-76
2023/07/08 04:01:27;;;;;;;4.90;3.30;;;21.00;68.50;;;;;;5095430;28;20032;-76
2023/07/08 04:03:55;;;;;;;4.82;3.28;;;20.90;68.50;;;;;;5112171;28;20050;-76
2023/07/08 04:06:21;;;;;;;5.45;3.20;;;21.00;68.60;;;;;;5113208;28;20036;-76
2023/07/08 04:08:47;;;;;;;5.65;3.20;;;21.00;68.50;;;;;;5113229;28;20024;-76
2023/07/08 04:11:16;;;;;;;7.55;3.65;;;21.00;68.70;;;;;;5112107;28;20036;-76
2023/07/08 04:13:42;;;;;;;5.80;3.58;;;21.00;69.00;;;;;;5113132;28;20024;-76
2023/07/08 04:16:13;;;;;;;5.18;3.38;;;21.00;68.80;;;;;;5112152;28;20091;-76
2023/07/08 04:18:39;;;;;;;4.63;3.33;;;20.90;68.80;;;;;;5112281;28;20028;-76
2023/07/08 04:21:06;;;;;;;5.25;3.53;;;20.80;69.40;;;;;;5112147;28;20044;-76
2023/07/08 04:23:32;;;;;;;7.10;3.50;;;20.80;69.20;;;;;;5111965;28;20045;-76
2023/07/08 04:25:58;;;;;;;5.70;3.45;;;20.80;69.30;;;;;;5112170;28;20088;-77
2023/07/08 04:28:23;;;;;;;4.40;3.50;;;20.80;69.40;;;;;;5112139;28;20047;-77
2023/07/08 04:30:49;;;;;;;4.18;3.40;;;20.80;69.60;;;;;;5111990;28;20052;-77
2023/07/08 04:33:16;;;;;;;5.70;3.33;;;20.80;70.00;;;;;;5111960;28;20032;-77
2023/07/08 04:35:43;;;;;;;4.03;3.00;;;20.90;69.90;;;;;;5112927;28;20024;-77
2023/07/08 04:38:17;;;;;;;5.40;3.35;;;20.80;70.00;;;;;;5111868;28;20048;-77
2023/07/08 04:40:44;;;;;;;4.43;3.25;;;20.80;69.40;;;;;;5112981;28;20024;-77
2023/07/08 04:43:12;;;;;;;6.63;3.97;;;20.80;69.50;;;;;;5112877;28;20028;-76
2023/07/08 04:45:40;;;;;;;5.18;3.92;;;20.80;69.80;;;;;;5095355;28;20024;-76
2023/07/08 04:48:12;;;;;;;6.70;4.30;;;20.90;69.70;;;;;;5111879;28;20028;-76
2023/07/08 04:50:41;;;;;;;;;;;20.90;69.90;;;;;;5112199;28;20095;-77
2023/07/08 04:53:07;;;;;;;7.07;3.50;;;20.90;69.70;;;;;;5094954;28;19908;-76
2023/07/08 04:55:33;;;;;;;6.20;4.38;;;20.80;70.00;;;;;;5111729;28;20079;-77
2023/07/08 04:57:59;;;;;;;6.38;4.20;;;20.80;70.20;;;;;;5112107;28;20036;-77
2023/07/08 05:00:25;;;;;;;6.45;4.75;;;20.90;70.30;;;;;;5116349;28;20016;-77
2023/07/08 05:02:50;;;;;;;6.45;4.25;;;20.90;70.50;;;;;;5115377;28;20038;-76
2023/07/08 05:05:16;;;;;;;5.75;4.03;;;20.90;70.50;;;;;;5116251;28;20035;-75
2023/07/08 05:07:41;;;;;;;6.03;4.28;;;20.90;70.60;;;;;;5115298;28;20025;-76
2023/07/08 05:10:07;;;;;;;6.05;3.40;;;21.00;70.60;;;;;;5116134;28;20024;-76
2023/07/08 05:12:33;;;;;;;6.75;4.05;;;21.00;70.80;;;;;;5116183;28;20028;-76
2023/07/08 05:14:58;;;;;;;7.97;3.78;;;20.90;70.60;;;;;;5098181;28;20036;-76
2023/07/08 05:17:25;;;;;;;6.22;4.18;;;21.00;70.60;;;;;;5115069;28;20028;-76
2023/07/08 05:19:51;;;;;;;5.57;3.65;;;21.00;70.50;;;;;;5115150;28;20027;-76
2023/07/08 05:22:18;;;;;;;6.43;3.60;;;21.00;70.60;;;;;;5115061;28;20024;-76
2023/07/08 05:24:44;;;;;;;9.07;3.90;;;20.90;70.60;;;;;;5114880;28;20038;-76
2023/07/08 05:27:10;;;;;;;5.50;3.92;;;21.00;70.70;;;;;;5115841;28;20031;-77
2023/07/08 05:29:36;;;;;;;4.97;3.42;;;21.00;70.60;;;;;;5114778;28;20024;-75
2023/07/08 05:32:02;;;;;;;6.15;3.72;;;21.10;70.30;;;;;;5114785;28;20059;-76
2023/07/08 05:34:28;;;;;;;6.18;3.33;;;21.00;69.60;;;;;;5114536;28;20024;-75
2023/07/08 05:36:53;;;;;;;6.35;3.53;;;21.00;69.60;;;;;;5115488;28;20048;-75
2023/07/08 05:39:19;;;;;;;7.63;3.53;;;21.00;69.80;;;;;;5114705;28;20085;-75
2023/07/08 05:41:45;;;;;;;14.60;3.95;;;21.00;69.80;;;;;;5114596;28;20494;-75
2023/07/08 05:44:10;;;;;;;6.78;3.65;;;21.10;70.20;;;;;;5114699;28;20034;-76
2023/07/08 05:46:37;;;;;;;6.57;3.40;;;21.10;70.30;;;;;;5114516;28;20471;-75
2023/07/08 05:49:02;;;;;;;6.35;3.70;;;21.10;70.20;;;;;;5097641;28;20032;-75
2023/07/08 05:51:28;;;;;;;5.85;3.35;;;21.10;70.20;;;;;;5114227;28;20040;-75
2023/07/08 05:53:54;;;;;;;8.15;5.72;;;21.20;70.60;;;;;;5114300;28;20054;-75
2023/07/08 05:56:19;;;;;;;6.20;3.33;;;21.20;70.60;;;;;;5115257;28;20052;-75
2023/07/08 05:58:45;;;;;;;7.03;3.63;;;21.30;70.50;;;;;;5115377;28;20024;-75
2023/07/08 06:01:10;;;;;;;4.82;3.47;;;21.30;70.10;;;;;;5114312;28;20038;-75
2023/07/08 06:03:37;;;;;;;6.00;3.45;;;21.30;70.40;;;;;;5114219;28;20031;-75
2023/07/08 06:06:05;;;;;;;6.38;3.55;;;21.30;70.80;;;;;;5114131;28;20096;-75
2023/07/08 06:08:31;;;;;;;5.30;3.70;;;21.30;71.00;;;;;;5113832;28;20070;-75
2023/07/08 06:10:57;;;;;;;4.60;3.30;;;21.40;71.10;;;;;;5113649;28;20441;-75
2023/07/08 06:13:22;;;;;;;6.00;3.65;;;21.40;71.20;;;;;;5114039;28;20028;-75
2023/07/08 06:15:48;;;;;;;9.23;3.85;;;21.50;71.30;;;;;;5113851;28;20024;-75
2023/07/08 06:18:14;;;;;;;6.15;3.35;;;21.50;71.40;;;;;;5114792;28;20035;-75
2023/07/08 06:20:39;;;;;;;4.38;3.25;;;21.60;71.00;;;;;;5113789;28;20099;-75
2023/07/08 06:23:05;;;;;;;4.88;3.33;;;21.60;70.90;;;;;;5114731;28;20044;-75
2023/07/08 06:25:32;;;;;;;6.72;4.00;;;21.70;71.20;;;;;;5113679;28;20035;-75
2023/07/08 06:27:58;;;;;;;5.05;3.63;;;21.80;71.00;;;;;;5114653;28;20031;-76
2023/07/08 06:30:23;;;;;;;6.60;3.72;;;21.80;70.90;;;;;;5113670;28;20032;-74
2023/07/08 06:32:49;;;;;;;5.97;3.75;;;21.90;70.90;;;;;;5113661;28;20016;-75
2023/07/08 06:35:15;;;;;;;6.03;3.38;;;21.90;70.60;;;;;;5096523;28;20028;-75
2023/07/08 06:37:41;;;;;;;6.22;3.78;;;22.00;70.50;;;;;;5096428;28;20574;-75
2023/07/08 06:40:08;;;;;;;7.45;3.95;;;22.10;69.90;;;;;;5096471;28;20024;-75
2023/07/08 06:42:33;;;;;;;4.68;3.10;;;22.10;69.70;;;;;;5114375;28;20103;-75
2023/07/08 06:44:59;;;;;;;5.30;3.25;;;22.10;69.30;;;;;;5096545;28;20028;-75
2023/07/08 06:47:24;;;;;;;6.35;3.35;;;22.10;69.60;;;;;;5096365;28;20032;-76
2023/07/08 06:49:50;;;;;;;7.03;3.58;;;22.30;69.70;;;;;;5114444;28;20024;-75
2023/07/08 06:52:15;;;;;;;7.88;3.70;;;22.30;69.70;;;;;;5113146;28;20036;-75
2023/07/08 06:54:41;;;;;;;7.35;4.00;;;22.40;69.40;;;;;;5096311;28;20020;-75
2023/07/08 06:57:07;;;;;;;6.25;3.30;;;22.40;68.90;;;;;;5113084;28;20422;-75
2023/07/08 06:59:33;;;;;;;6.72;3.70;;;22.50;68.90;;;;;;5113070;28;20028;-75
2023/07/08 07:01:59;;;;;;;5.38;3.60;;;22.60;69.10;;;;;;5114008;28;20033;-76
2023/07/08 07:04:25;;;;;;;7.32;4.00;;;22.60;69.80;;;;;;5096152;28;20472;-78
2023/07/08 07:06:50;;;;;;;5.13;3.83;;;22.70;69.50;;;;;;5112927;28;20058;-75
2023/07/08 07:09:16;;;;;;;6.07;3.95;;;22.80;68.60;;;;;;5113894;28;20028;-74
2023/07/08 07:11:41;;;;;;;4.78;3.78;;;22.90;68.30;;;;;;5095823;28;20024;-75
2023/07/08 07:14:07;;;;;;;8.43;4.30;;;23.00;68.80;;;;;;5113821;28;20044;-75
2023/07/08 07:16:33;;;;;;;5.75;4.03;;;23.00;68.30;;;;;;5095877;28;20052;-75
2023/07/08 07:18:58;;;;;;;6.57;3.90;;;23.10;67.60;;;;;;5113891;28;20024;-75
2023/07/08 07:21:24;;;;;;;6.85;3.60;;;23.10;67.90;;;;;;5112079;28;20032;-75
2023/07/08 07:23:49;;;;;;;5.80;3.40;;;23.20;68.00;;;;;;5112786;28;20083;-75
2023/07/08 07:26:15;;;;;;;6.38;3.65;;;23.30;67.80;;;;;;5112582;28;20475;-74
2023/07/08 07:28:41;;;;;;;6.97;3.60;;;23.40;66.30;;;;;;5113610;28;20087;-75
2023/07/08 07:31:07;;;;;;;5.22;3.40;;;23.40;66.30;;;;;;5112634;28;20047;-75
2023/07/08 07:33:34;;;;;;;6.25;3.97;;;23.50;66.20;;;;;;5113504;28;20127;-74
2023/07/08 07:35:59;;;;;;;11.50;4.05;;;23.60;65.90;;;;;;5113537;28;20054;-74
2023/07/08 07:38:28;;;;;;;5.57;3.60;;;23.60;66.20;;;;;;5112462;28;20048;-75
2023/07/08 07:40:54;;;;;;;9.07;4.20;;;23.70;64.70;;;;;;5113426;28;20022;-75
2023/07/08 07:43:20;;;;;;;8.38;4.25;;;23.80;66.30;;;;;;5113486;28;20055;-74
2023/07/08 07:45:51;;;;;;;7.60;4.38;;;23.90;65.50;;;;;;5095513;28;20032;-75
2023/07/08 07:48:16;;;;;;;7.38;3.92;;;23.90;65.00;;;;;;5112400;28;20024;-74
2023/07/08 07:50:46;;;;;;;7.40;4.00;;;24.10;64.50;;;;;;5112288;28;20040;-75
2023/07/08 07:53:11;;;;;;;7.50;4.38;;;24.10;64.70;;;;;;5113513;28;20027;-75
2023/07/08 07:55:37;;;;;;;6.88;4.10;;;24.00;64.80;;;;;;5112423;28;20024;-75
2023/07/08 07:58:04;;;;;;;5.75;4.13;;;24.10;65.00;;;;;;5095352;28;20029;-75
2023/07/08 08:00:30;;;;;;;6.72;4.25;;;24.20;65.30;;;;;;5112348;28;20020;-75
2023/07/08 08:02:56;;;;;;;6.88;4.40;;;24.30;64.80;;;;;;5112210;28;20042;-75
2023/07/08 08:05:22;;;;;;;9.27;5.28;;;24.30;64.50;;;;;;5112236;28;20628;-75
2023/07/08 08:07:48;;;;;;;7.78;4.70;;;24.40;65.10;;;;;;5112251;28;20032;-75
2023/07/08 08:10:14;;;;;;;7.22;4.53;;;24.50;64.00;;;;;;5095362;28;20024;-75
2023/07/08 08:12:40;;;;;;;7.03;4.60;;;24.60;64.40;;;;;;5112054;28;20020;-75
2023/07/08 08:15:06;;;;;;;7.32;4.57;;;24.70;64.20;;;;;;5095254;28;20115;-75
2023/07/08 08:17:31;;;;;;;10.50;4.60;;;24.80;64.50;;;;;;5112157;28;20032;-76
2023/07/08 08:19:57;;;;;;;7.35;4.53;;;24.90;63.50;;;;;;5112912;28;20051;-76
2023/07/08 08:22:23;;;;;;;8.15;4.85;;;25.00;63.30;;;;;;5095204;28;20032;-75
2023/07/08 08:24:49;;;;;;;8.32;4.40;;;25.10;63.40;;;;;;5095158;28;20025;-75
2023/07/08 08:27:15;;;;;;;7.43;4.75;;;25.10;63.50;;;;;;5111928;28;20031;-76
2023/07/08 08:29:41;;;;;;;8.20;4.50;;;25.20;63.70;;;;;;5112077;28;20051;-75
2023/07/08 08:32:07;;;;;;;9.27;4.35;;;25.20;62.40;;;;;;5113648;28;20024;-75
2023/07/08 08:34:32;;;;;;;7.50;4.82;;;25.30;61.30;;;;;;5098943;28;20050;-75
2023/07/08 08:36:58;;;;;;;10.20;4.65;;;25.40;62.00;;;;;;5115810;28;20048;-75
2023/07/08 08:39:26;;;;;;;8.00;4.75;;;25.50;62.90;;;;;;5116798;28;20024;-75
2023/07/08 08:41:53;;;;;;;8.82;4.38;;;25.60;62.20;;;;;;5116806;28;20031;-75
2023/07/08 08:44:27;;;;;;;9.73;5.18;;;25.70;61.50;;;;;;5116682;28;20102;-75
2023/07/08 08:47:36;;;;;;;8.57;5.03;;;25.70;61.20;;;;;;5115616;28;20050;-75
2023/07/08 08:50:28;;;;;;;6.80;4.43;;;25.70;61.00;;;;;;5017826;28;20097;-76
2023/07/08 08:52:55;;;;;;;8.07;4.95;;;25.70;62.20;;;;;;5018198;28;20113;-75
2023/07/08 08:55:24;;;;;;;8.98;5.00;;;25.70;61.80;;;;;;5083702;28;20032;-75
2023/07/08 08:58:25;;;;;;;10.35;4.70;;;25.80;61.60;;;;;;5116446;28;20044;-75
2023/07/08 09:01:03;;;;;;;9.50;4.20;;;25.90;61.90;;;;;;5115437;28;20104;-75
2023/07/08 09:03:40;;;;;;;8.18;4.60;;;26.10;60.70;;;;;;5116273;28;20021;-75
2023/07/08 09:06:24;;;;;;;8.07;4.63;;;26.10;59.70;;;;;;5116388;28;20024;-74
2023/07/08 09:08:51;;;;;;;8.05;5.30;;;26.30;60.60;;;;;;5116240;28;20475;-75
2023/07/08 09:11:36;;;;;;;8.40;4.68;;;26.30;59.30;;;;;;5116151;28;20114;-75
2023/07/08 09:14:02;;;;;;;7.47;4.97;;;26.40;60.00;;;;;;5116171;28;20031;-76
2023/07/08 09:16:44;;;;;;;9.70;4.82;;;26.50;59.60;;;;;;5116040;28;20088;-73
2023/07/08 09:19:22;;;;;;;11.88;6.25;;;26.60;58.10;;;;;;5116015;28;20024;-75
2023/07/08 09:22:06;;;;;;;10.00;4.85;;;26.70;58.80;;;;;;5116146;28;20024;-74
2023/07/08 09:24:32;;;;;;;7.88;5.10;;;26.80;58.20;;;;;;5114875;28;20031;-75
2023/07/08 09:27:01;;;;;;;8.98;4.40;;;26.90;58.00;;;;;;5115835;28;20031;-75
2023/07/08 09:29:27;;;;;;;8.85;4.93;;;26.90;59.40;;;;;;5115823;28;20024;-74
2023/07/08 09:31:54;;;;;;;8.73;4.90;;;27.00;57.50;;;;;;5115798;28;20084;-75
2023/07/08 09:34:23;;;;;;;7.70;4.93;;;27.10;58.30;;;;;;5115660;28;20023;-75
2023/07/08 09:36:50;;;;;;;9.15;5.10;;;27.20;58.80;;;;;;5115537;28;20020;-75
2023/07/08 09:39:20;;;;;;;7.95;4.80;;;27.20;57.40;;;;;;5115684;28;20065;-74
2023/07/08 09:41:48;;;;;;;7.90;4.95;;;27.30;56.30;;;;;;5115628;28;20020;-75
2023/07/08 09:44:18;;;;;;;7.50;5.22;;;27.30;55.50;;;;;;5114882;28;20024;-75
2023/07/08 09:46:44;;;;;;;7.93;5.22;;;27.40;56.40;;;;;;5115508;28;20024;-75
2023/07/08 09:49:32;;;;;;;9.10;5.22;;;27.50;57.00;;;;;;5115389;28;20026;-75
2023/07/08 09:51:59;;;;;;;8.10;5.05;;;27.60;56.00;;;;;;5115363;28;20028;-75
2023/07/08 09:54:26;;;;;;;10.35;5.47;;;27.60;56.10;;;;;;5115351;28;20036;-75
2023/07/08 09:57:02;;;;;;;10.68;5.35;;;27.70;57.20;;;;;;5097419;28;20044;-75
2023/07/08 09:59:46;;;;;;;9.48;4.90;;;27.90;56.90;;;;;;5115382;28;20083;-75
2023/07/08 10:02:31;;;;;;;7.38;4.50;;;28.00;56.30;;;;;;5115208;28;20024;-76
2023/07/08 10:05:01;;;;;;;11.25;5.30;;;28.10;57.10;;;;;;5114059;28;20036;-75
2023/07/08 10:07:31;;;;;;;7.78;4.53;;;28.20;57.50;;;;;;5115132;28;20020;-75
2023/07/08 10:10:01;;;;;;;13.85;4.90;;;28.30;56.80;;;;;;5114986;28;20034;-74
2023/07/08 10:12:27;;;;;;;9.95;4.90;;;28.40;58.40;;;;;;5113844;28;20031;-76
2023/07/08 10:15:20;;;;;;;10.93;5.00;;;28.50;56.20;;;;;;5113973;28;20025;-75
2023/07/08 10:17:46;;;;;;;9.70;5.28;;;28.60;56.90;;;;;;5114975;28;20024;-75
2023/07/08 10:20:13;;;;;;;10.70;5.05;;;28.60;57.40;;;;;;5113825;28;20089;-75
2023/07/08 10:22:58;;;;;;;8.75;5.00;;;28.60;55.20;;;;;;5113797;28;20023;-75
2023/07/08 10:25:42;;;;;;;12.40;5.18;;;28.70;54.10;;;;;;5114871;28;20035;-75
2023/07/08 10:28:34;;;;;;;7.93;4.95;;;28.80;54.30;;;;;;5114688;28;20028;-74
2023/07/08 10:31:28;;;;;;;9.77;5.95;;;28.90;53.40;;;;;;5113564;28;20032;-75
2023/07/08 10:34:09;;;;;;;9.05;5.32;;;28.90;51.80;;;;;;5114662;28;20025;-75
2023/07/08 10:37:01;;;;;;;9.05;5.28;;;29.00;50.40;;;;;;5113498;28;20455;-75
2023/07/08 10:39:36;;;;;;;7.25;4.80;;;29.10;53.10;;;;;;5113493;28;20039;-74
2023/07/08 10:42:32;;;;;;;10.68;5.20;;;29.20;53.00;;;;;;5114353;28;20032;-74
2023/07/08 10:45:31;;;;;;;14.10;5.20;;;29.30;53.30;;;;;;5114398;28;20039;-75
2023/07/08 10:48:13;;;;;;;10.18;5.03;;;29.40;51.10;;;;;;5114343;28;20050;-75
2023/07/08 10:51:14;;;;;;;8.82;5.00;;;29.40;51.90;;;;;;5114251;28;20028;-75
2023/07/08 10:54:24;;;;;;;8.05;4.80;;;29.50;50.20;;;;;;5114365;28;20020;-75
2023/07/08 10:57:15;;;;;;;8.05;4.93;;;29.60;51.60;;;;;;5113413;28;20024;-74
2023/07/08 10:59:52;;;;;;;8.85;4.75;;;29.60;51.50;;;;;;5113157;28;20035;-75
2023/07/08 11:02:25;;;;;;;9.30;4.95;;;29.70;53.70;;;;;;5114094;28;20024;-75
2023/07/08 11:05:03;;;;;;;7.32;4.70;;;29.80;51.60;;;;;;5112817;28;20028;-74
2023/07/08 11:07:48;;;;;;;7.80;4.70;;;29.80;48.70;;;;;;5112965;28;20024;-75
2023/07/08 11:10:23;;;;;;;8.40;4.95;;;29.80;47.60;;;;;;5113964;28;20024;-75
2023/07/08 11:13:04;;;;;;;8.52;5.30;;;29.80;48.30;;;;;;5113837;28;20028;-74
2023/07/08 11:16:04;;;;;;;8.97;4.60;;;29.80;47.00;;;;;;5113922;28;20024;-74
2023/07/08 11:18:37;;;;;;;8.52;4.55;;;29.90;50.10;;;;;;5113699;28;20313;-75
2023/07/08 11:21:16;;;;;;;8.85;4.55;;;30.00;49.80;;;;;;5113942;28;20024;-75
2023/07/08 11:24:00;;;;;;;9.85;5.50;;;30.10;47.00;;;;;;5113900;28;20028;-75
2023/07/08 11:26:32;;;;;;;8.50;4.85;;;30.20;47.50;;;;;;5113849;28;20035;-75
2023/07/08 11:29:00;;;;;;;10.63;5.13;;;30.20;46.40;;;;;;5112562;28;20027;-74
2023/07/08 11:31:30;;;;;;;8.77;4.90;;;30.20;46.20;;;;;;5113497;28;20023;-74
2023/07/08 11:33:56;;;;;;;10.18;5.18;;;30.20;47.20;;;;;;5113633;28;20045;-75
2023/07/08 11:36:24;;;;;;;8.27;4.95;;;30.30;49.00;;;;;;5112705;28;20023;-75
2023/07/08 11:38:52;;;;;;;8.38;4.90;;;30.50;47.70;;;;;;5113210;28;20040;-75
2023/07/08 11:41:21;;;;;;;11.20;5.65;;;30.60;46.30;;;;;;5113467;28;20380;-75
2023/07/08 11:43:58;;;;;;;13.73;5.97;;;30.50;44.60;;;;;;5112745;28;20050;-74
2023/07/08 11:46:28;;;;;;;9.20;5.43;;;30.60;47.00;;;;;;5113452;28;20087;-75
2023/07/08 11:48:56;;;;;;;9.85;5.32;;;30.60;44.90;;;;;;5113444;28;20035;-74
2023/07/08 11:51:30;;;;;;;9.48;5.60;;;30.70;45.80;;;;;;5112505;28;20047;-75
2023/07/08 11:54:19;;;;;;;8.73;5.10;;;30.80;44.90;;;;;;5113380;28;20025;-74
2023/07/08 11:56:59;;;;;;;8.38;5.07;;;30.90;43.40;;;;;;5113383;28;20016;-74
2023/07/08 11:59:36;;;;;;;7.45;5.07;;;30.90;43.20;;;;;;5113303;28;20033;-75
2023/07/08 12:02:18;;;;;;;8.25;5.22;;;30.90;44.10;;;;;;5113148;28;20032;-75
2023/07/08 12:05:13;;;;;;;8.05;4.80;;;31.00;44.10;;;;;;5112238;28;20020;-75
2023/07/08 12:07:47;;;;;;;10.63;5.35;;;31.10;45.00;;;;;;5112843;28;20039;-75
2023/07/08 12:10:22;;;;;;;14.50;5.13;;;31.20;42.50;;;;;;5117332;28;20059;-75
2023/07/08 12:12:48;;;;;;;7.78;4.72;;;31.30;44.30;;;;;;5117354;28;20103;-75
2023/07/08 12:15:22;;;;;;;9.15;4.47;;;31.40;42.80;;;;;;5117304;28;20050;-75
2023/07/08 12:17:50;;;;;;;8.73;5.15;;;31.50;43.20;;;;;;5116281;28;20020;-74
2023/07/08 12:20:29;;;;;;;8.60;5.07;;;31.60;40.50;;;;;;5116120;28;20498;-75
2023/07/08 12:22:55;;;;;;;9.70;5.53;;;31.60;40.30;;;;;;5117096;28;20031;-75
2023/07/08 12:25:26;;;;;;;6.38;4.60;;;31.70;41.20;;;;;;5116110;28;20087;-76
2023/07/08 12:27:51;;;;;;;8.35;4.70;;;31.80;41.50;;;;;;5117121;28;20122;-76
2023/07/08 12:30:17;;;;;;;8.40;4.63;;;31.90;41.20;;;;;;5116229;28;20020;-76
2023/07/08 12:32:44;;;;;;;8.98;4.30;;;32.00;39.90;;;;;;5116941;28;20081;-76
2023/07/08 12:35:32;;;;;;;11.48;4.90;;;32.10;38.40;;;;;;5115751;28;20091;-76
2023/07/08 12:38:11;;;;;;;7.90;4.53;;;32.10;37.50;;;;;;5116739;28;20047;-74
2023/07/08 12:40:37;;;;;;;7.95;4.82;;;32.10;40.40;;;;;;5115837;28;20024;-75
2023/07/08 12:43:08;;;;;;;8.32;4.65;;;32.20;39.90;;;;;;5115847;28;20073;-75
2023/07/08 12:45:34;;;;;;;7.95;4.10;;;32.10;35.60;;;;;;5116759;28;20067;-75
2023/07/08 12:47:59;;;;;;;8.70;4.53;;;32.20;37.50;;;;;;5098748;28;20040;-75
2023/07/08 12:50:25;;;;;;;8.35;4.95;;;32.20;36.20;;;;;;5115797;28;20384;-75
2023/07/08 12:52:51;;;;;;;9.25;4.60;;;32.20;36.10;;;;;;5116586;28;20106;-75
2023/07/08 12:55:16;;;;;;;7.25;4.22;;;32.20;36.50;;;;;;5115665;28;20032;-75
2023/07/08 12:57:47;;;;;;;7.80;4.53;;;32.30;36.80;;;;;;5115566;28;20028;-75